Terminal Aerodrome Forecast
Issued by NWS

Home | Current Version | Previous Version | Text Only | Print | Product List | Glossary On
Versions: 1 2 3 4 5 6 7 8 9 10 11 12 13 14 15 16 17 18 19
000
FTUS43 KGRB 221736
TAFRHI
TAF
KRHI 221736Z 2218/2318 26004KT P6SM SCT050
     FM230100 VRB02KT P6SM SCT250
     FM230800 00000KT 3SM BR SCT250
      TEMPO 2309/2313 1SM BR
     FM231300 23004KT P6SM SCT250
     FM231600 22006KT P6SM SCT050=

USA.gov is the U.S. government's official web portal to all federal, state and local government web resources and services.